Decoded Metar for KMMT (MCENTIRE ANG BAS in SC, USA) (IATA:MMT) | Meteo·Mobile Aviation Weather
aviador You're here:

KMMT Decoded Metar

MCENTIRE ANG BAS in SC, USA
Report Time2019-02-16 16:52:00
UTC Time2019-02-16 17:09:50
Flight Rules mvfr MVFR
Wind260° at 07 kt
W.Decomp.*RWY 23: 5.7 kt HW 4.0 kt RCW
RWY 32: 4.0 kt HW 5.7 kt LCW
RWY 18: 0.6 kt HW 7.0 kt RCW
W.Rank260° ranks 7
Current wind is below 260° avg. (7.2)
Visibility9999 m
Phenomena:N/A
Clouds:Few 007 Hf
Scattered 012 Hf
Broken 018 Hf
Broken 029 Hf
Ceiling1,800 ft
Temp17°C (ISA +3)
Dew Point17°C (100% RH)
AAT16.9°C
QNH1007 hPa
Density Alt1,010 ft
Elevation253 ft
Report Wrong Elevation
Raw Report
KMMT 161652Z 26007KT 10SM FEW007 SCT012 BKN018 BKN029 17/17 A2974
RMK AO2A SLP073 $=

Extra information for KMMT:More info

Metar Taf Metar & Taf Last 4 Metars F.Rules Stats Wind Profile Meteogram Temp Stats Airport Information Weather charts Add Link Nearby VenuesMetar ALERT Operation Metar Decoded Social comments

AIRNAV info for KMMT